Weather at Kassala Airport

Public forecast

Using degrees Celsius for public forecast. Weather courtesy of forecast.io.

Closest aviation weather report (METAR) to Kassala Airport

Report is more than 6 hours old.

Closest report is Khartoum International Airport, 218.8 nm (405.2 km) W.

2022/11/14 12:30 (retrieved 2 years ago)

HSSK 141230Z 32007KT CAVOK 34/07 Q1011 NOSIG

Closest aviation forecast (TAF) to Kassala Airport

Forecast is more than 12 hours old.

Closest forecast is Khartoum International Airport, 218.8 nm (405.2 km) W.

2023/02/22 12:40 (retrieved 1 year ago)

TAF HSSK 221100Z 2212/2318 36012G22KT 8000